sensor_id;sensor_type;location;lat;lon;timestamp;pressure;altitude;pressure_sealevel;temperature;humidity
67109;BME280;54027;50.786;7.058;2023-09-30T00:00:22;101989.16;;;13.68;100.00
67109;BME280;54027;50.786;7.058;2023-09-30T00:02:47;101990.00;;;13.66;100.00
67109;BME280;54027;50.786;7.058;2023-09-30T00:05:13;101988.31;;;13.62;100.00
67109;BME280;54027;50.786;7.058;2023-09-30T00:07:40;101983.97;;;13.54;100.00
67109;BME280;54027;50.786;7.058;2023-09-30T00:10:06;101994.38;;;13.50;100.00
67109;BME280;54027;50.786;7.058;2023-09-30T00:12:31;101997.81;;;13.47;100.00
67109;BME280;54027;50.786;7.058;2023-09-30T00:14:57;102003.88;;;13.45;100.00
67109;BME280;54027;50.786;7.058;2023-09-30T00:17:22;102000.44;;;13.41;100.00
67109;BME280;54027;50.786;7.058;2023-09-30T00:19:47;102009.97;;;13.38;100.00
67109;BME280;54027;50.786;7.058;2023-09-30T00:22:13;102014.28;;;13.36;100.00
67109;BME280;54027;50.786;7.058;2023-09-30T00:24:38;102017.75;;;13.33;100.00
67109;BME280;54027;50.786;7.058;2023-09-30T00:27:03;102025.53;;;13.33;100.00
67109;BME280;54027;50.786;7.058;2023-09-30T00:29:29;102027.25;;;13.33;100.00
67109;BME280;54027;50.786;7.058;2023-09-30T00:31:54;102039.41;;;13.35;100.00
67109;BME280;54027;50.786;7.058;2023-09-30T00:34:19;102030.72;;;13.30;100.00
67109;BME280;54027;50.786;7.058;2023-09-30T00:36:45;102029.00;;;13.20;100.00
67109;BME280;54027;50.786;7.058;2023-09-30T00:39:10;102025.53;;;13.23;100.00
67109;BME280;54027;50.786;7.058;2023-09-30T00:41:38;102021.22;;;13.20;100.00
67109;BME280;54027;50.786;7.058;2023-09-30T00:44:04;102020.34;;;13.21;100.00
67109;BME280;54027;50.786;7.058;2023-09-30T00:46:31;102016.03;;;13.20;100.00
67109;BME280;54027;50.786;7.058;2023-09-30T00:48:58;102020.34;;;13.21;100.00
67109;BME280;54027;50.786;7.058;2023-09-30T00:51:24;102021.22;;;13.20;100.00
67109;BME280;54027;50.786;7.058;2023-09-30T00:53:53;102022.94;;;13.20;100.00
67109;BME280;54027;50.786;7.058;2023-09-30T00:56:21;102024.66;;;13.21;100.00
67109;BME280;54027;50.786;7.058;2023-09-30T00:58:48;102019.47;;;13.21;100.00
67109;BME280;54027;50.786;7.058;2023-09-30T01:01:16;102017.72;;;13.21;100.00
67109;BME280;54027;50.786;7.058;2023-09-30T01:03:42;102020.34;;;13.21;100.00
67109;BME280;54027;50.786;7.058;2023-09-30T01:06:07;102025.53;;;13.18;100.00
67109;BME280;54027;50.786;7.058;2023-09-30T01:08:33;102025.53;;;13.17;100.00
67109;BME280;54027;50.786;7.058;2023-09-30T01:10:59;102036.78;;;13.16;100.00
67109;BME280;54027;50.786;7.058;2023-09-30T01:13:36;102031.56;;;13.16;100.00
67109;BME280;54027;50.786;7.058;2023-09-30T01:16:06;102024.66;;;13.16;100.00
67109;BME280;54027;50.786;7.058;2023-09-30T01:18:32;102016.88;;;13.16;100.00
67109;BME280;54027;50.786;7.058;2023-09-30T01:21:02;102019.47;;;13.16;100.00
67109;BME280;54027;50.786;7.058;2023-09-30T01:23:32;102030.72;;;13.17;100.00
67109;BME280;54027;50.786;7.058;2023-09-30T01:25:57;102033.31;;;13.18;100.00
67109;BME280;54027;50.786;7.058;2023-09-30T01:28:25;102029.88;;;13.18;100.00
67109;BME280;54027;50.786;7.058;2023-09-30T01:30:51;102028.13;;;13.20;100.00
67109;BME280;54027;50.786;7.058;2023-09-30T01:33:17;102033.34;;;13.23;100.00
67109;BME280;54027;50.786;7.058;2023-09-30T01:35:44;102044.56;;;13.25;100.00
67109;BME280;54027;50.786;7.058;2023-09-30T01:38:10;102029.00;;;13.23;100.00
67109;BME280;54027;50.786;7.058;2023-09-30T01:40:35;102030.72;;;13.21;100.00
67109;BME280;54027;50.786;7.058;2023-09-30T01:43:02;102030.72;;;13.20;100.00
67109;BME280;54027;50.786;7.058;2023-09-30T01:45:28;102036.78;;;13.19;100.00
67109;BME280;54027;50.786;7.058;2023-09-30T01:47:53;102051.50;;;13.17;100.00
67109;BME280;54027;50.786;7.058;2023-09-30T01:50:19;102059.28;;;13.17;100.00
67109;BME280;54027;50.786;7.058;2023-09-30T01:52:45;102054.09;;;13.17;100.00
67109;BME280;54027;50.786;7.058;2023-09-30T01:55:10;102041.97;;;13.14;100.00
67109;BME280;54027;50.786;7.058;2023-09-30T01:57:36;102028.97;;;13.13;100.00
67109;BME280;54027;50.786;7.058;2023-09-30T02:00:02;102028.13;;;13.11;100.00
67109;BME280;54027;50.786;7.058;2023-09-30T02:02:27;102029.88;;;13.09;100.00
67109;BME280;54027;50.786;7.058;2023-09-30T02:04:53;102037.66;;;13.06;100.00
67109;BME280;54027;50.786;7.058;2023-09-30T02:07:19;102041.09;;;13.02;100.00
67109;BME280;54027;50.786;7.058;2023-09-30T02:09:44;102044.56;;;13.02;100.00
67109;BME280;54027;50.786;7.058;2023-09-30T02:12:10;102053.19;;;12.99;100.00
67109;BME280;54027;50.786;7.058;2023-09-30T02:14:35;102048.81;;;12.97;100.00
67109;BME280;54027;50.786;7.058;2023-09-30T02:17:01;102044.50;;;12.97;100.00
67109;BME280;54027;50.786;7.058;2023-09-30T02:19:26;102043.59;;;12.94;100.00
67109;BME280;54027;50.786;7.058;2023-09-30T02:21:52;102039.28;;;12.91;100.00
67109;BME280;54027;50.786;7.058;2023-09-30T02:24:18;102044.50;;;12.90;100.00
67109;BME280;54027;50.786;7.058;2023-09-30T02:26:43;102041.88;;;12.88;100.00
67109;BME280;54027;50.786;7.058;2023-09-30T02:29:09;102038.41;;;12.86;100.00
67109;BME280;54027;50.786;7.058;2023-09-30T02:31:34;102032.34;;;12.86;100.00
67109;BME280;54027;50.786;7.058;2023-09-30T02:33:59;102047.06;;;12.87;100.00
67109;BME280;54027;50.786;7.058;2023-09-30T02:36:25;102053.13;;;12.87;100.00
67109;BME280;54027;50.786;7.058;2023-09-30T02:38:52;102048.78;;;12.86;100.00
67109;BME280;54027;50.786;7.058;2023-09-30T02:41:17;102049.69;;;12.90;100.00
67109;BME280;54027;50.786;7.058;2023-09-30T02:43:43;102055.72;;;12.92;100.00
67109;BME280;54027;50.786;7.058;2023-09-30T02:46:09;102060.03;;;12.91;100.00
67109;BME280;54027;50.786;7.058;2023-09-30T02:48:35;102056.59;;;12.91;100.00
67109;BME280;54027;50.786;7.058;2023-09-30T02:51:00;102049.66;;;12.87;100.00
67109;BME280;54027;50.786;7.058;2023-09-30T02:53:25;102051.38;;;12.86;100.00
67109;BME280;54027;50.786;7.058;2023-09-30T02:55:51;102054.00;;;12.85;100.00
67109;BME280;54027;50.786;7.058;2023-09-30T02:58:21;102051.38;;;12.83;100.00
67109;BME280;54027;50.786;7.058;2023-09-30T03:00:49;102052.22;;;12.82;100.00
67109;BME280;54027;50.786;7.058;2023-09-30T03:03:15;102049.63;;;12.82;100.00
67109;BME280;54027;50.786;7.058;2023-09-30T03:05:40;102055.69;;;12.80;100.00
67109;BME280;54027;50.786;7.058;2023-09-30T03:08:06;102057.41;;;12.79;100.00
67109;BME280;54027;50.786;7.058;2023-09-30T03:10:31;102063.47;;;12.77;100.00
67109;BME280;54027;50.786;7.058;2023-09-30T03:12:57;102062.63;;;12.78;100.00
67109;BME280;54027;50.786;7.058;2023-09-30T03:15:27;102060.00;;;12.75;100.00
67109;BME280;54027;50.786;7.058;2023-09-30T03:17:53;102051.38;;;12.76;100.00
67109;BME280;54027;50.786;7.058;2023-09-30T03:20:21;102050.47;;;12.71;100.00
67109;BME280;54027;50.786;7.058;2023-09-30T03:22:47;102046.16;;;12.70;100.00
67109;BME280;54027;50.786;7.058;2023-09-30T03:25:14;102056.53;;;12.70;100.00
67109;BME280;54027;50.786;7.058;2023-09-30T03:27:41;102067.78;;;12.69;100.00
67109;BME280;54027;50.786;7.058;2023-09-30T03:30:07;102059.09;;;12.65;100.00
67109;BME280;54027;50.786;7.058;2023-09-30T03:32:34;102053.94;;;12.64;100.00
67109;BME280;54027;50.786;7.058;2023-09-30T03:35:06;102051.31;;;12.61;100.00
67109;BME280;54027;50.786;7.058;2023-09-30T03:37:32;102054.75;;;12.57;100.00
67109;BME280;54027;50.786;7.058;2023-09-30T03:39:58;102056.47;;;12.53;100.00
67109;BME280;54027;50.786;7.058;2023-09-30T03:42:23;102057.31;;;12.51;100.00
67109;BME280;54027;50.786;7.058;2023-09-30T03:44:49;102065.09;;;12.48;100.00
67109;BME280;54027;50.786;7.058;2023-09-30T03:47:15;102063.31;;;12.43;100.00
67109;BME280;54027;50.786;7.058;2023-09-30T03:49:42;102068.53;;;12.40;100.00
67109;BME280;54027;50.786;7.058;2023-09-30T03:52:11;102056.34;;;12.30;100.00
67109;BME280;54027;50.786;7.058;2023-09-30T03:54:37;102055.41;;;12.18;100.00
67109;BME280;54027;50.786;7.058;2023-09-30T03:57:03;102049.34;;;12.13;100.00
67109;BME280;54027;50.786;7.058;2023-09-30T03:59:29;102047.59;;;12.07;100.00
67109;BME280;54027;50.786;7.058;2023-09-30T04:01:55;102051.03;;;12.03;100.00
67109;BME280;54027;50.786;7.058;2023-09-30T04:04:22;102052.72;;;12.00;100.00
67109;BME280;54027;50.786;7.058;2023-09-30T04:06:47;102058.75;;;11.96;100.00
67109;BME280;54027;50.786;7.058;2023-09-30T04:09:13;102056.13;;;11.91;100.00
67109;BME280;54027;50.786;7.058;2023-09-30T04:11:39;102063.88;;;11.91;100.00
67109;BME280;54027;50.786;7.058;2023-09-30T04:14:06;102059.56;;;11.87;100.00
67109;BME280;54027;50.786;7.058;2023-09-30T04:16:32;102060.38;;;11.84;100.00
67109;BME280;54027;50.786;7.058;2023-09-30T04:18:57;102050.03;;;11.83;100.00
67109;BME280;54027;50.786;7.058;2023-09-30T04:21:23;102040.50;;;11.82;100.00
67109;BME280;54027;50.786;7.058;2023-09-30T04:23:48;102041.38;;;11.78;100.00
67109;BME280;54027;50.786;7.058;2023-09-30T04:26:14;102046.53;;;11.76;100.00
67109;BME280;54027;50.786;7.058;2023-09-30T04:28:40;102056.00;;;11.74;100.00
67109;BME280;54027;50.786;7.058;2023-09-30T04:31:05;102058.56;;;11.71;100.00
67109;BME280;54027;50.786;7.058;2023-09-30T04:33:32;102055.13;;;11.71;100.00
67109;BME280;54027;50.786;7.058;2023-09-30T04:36:00;102044.78;;;11.74;100.00
67109;BME280;54027;50.786;7.058;2023-09-30T04:38:25;102042.13;;;11.68;100.00
67109;BME280;54027;50.786;7.058;2023-09-30T04:40:51;102042.97;;;11.62;100.00
67109;BME280;54027;50.786;7.058;2023-09-30T04:43:17;102045.53;;;11.61;100.00
67109;BME280;54027;50.786;7.058;2023-09-30T04:45:43;102047.22;;;11.56;100.00
67109;BME280;54027;50.786;7.058;2023-09-30T04:48:08;102048.06;;;11.55;100.00
67109;BME280;54027;50.786;7.058;2023-09-30T04:50:34;102048.06;;;11.53;100.00
67109;BME280;54027;50.786;7.058;2023-09-30T04:52:59;102065.38;;;11.57;100.00
67109;BME280;54027;50.786;7.058;2023-09-30T04:55:24;102073.06;;;11.48;100.00
67109;BME280;54027;50.786;7.058;2023-09-30T04:57:51;102075.63;;;11.47;100.00
67109;BME280;54027;50.786;7.058;2023-09-30T05:00:18;102080.78;;;11.44;100.00
67109;BME280;54027;50.786;7.058;2023-09-30T05:02:46;102083.34;;;11.42;100.00
67109;BME280;54027;50.786;7.058;2023-09-30T05:05:12;102085.91;;;11.41;100.00
67109;BME280;54027;50.786;7.058;2023-09-30T05:07:38;102098.84;;;11.39;100.00
67109;BME280;54027;50.786;7.058;2023-09-30T05:10:04;102098.84;;;11.39;100.00
67109;BME280;54027;50.786;7.058;2023-09-30T05:12:36;102099.69;;;11.37;100.00
67109;BME280;54027;50.786;7.058;2023-09-30T05:15:02;102097.91;;;11.34;100.00
67109;BME280;54027;50.786;7.058;2023-09-30T05:17:28;102089.25;;;11.32;100.00
67109;BME280;54027;50.786;7.058;2023-09-30T05:19:55;102072.84;;;11.28;100.00
67109;BME280;54027;50.786;7.058;2023-09-30T05:22:21;102076.28;;;11.29;100.00
67109;BME280;54027;50.786;7.058;2023-09-30T05:24:50;102078.88;;;11.27;100.00
67109;BME280;54027;50.786;7.058;2023-09-30T05:27:15;102079.72;;;11.28;100.00
67109;BME280;54027;50.786;7.058;2023-09-30T05:29:41;102088.38;;;11.28;100.00
67109;BME280;54027;50.786;7.058;2023-09-30T05:32:08;102087.53;;;11.29;100.00
67109;BME280;54027;50.786;7.058;2023-09-30T05:34:34;102092.66;;;11.28;100.00
67109;BME280;54027;50.786;7.058;2023-09-30T05:36:59;102104.75;;;11.29;100.00
67109;BME280;54027;50.786;7.058;2023-09-30T05:39:24;102108.22;;;11.31;100.00
67109;BME280;54027;50.786;7.058;2023-09-30T05:41:51;102109.13;;;11.34;100.00
67109;BME280;54027;50.786;7.058;2023-09-30T05:44:16;102110.00;;;11.35;100.00
67109;BME280;54027;50.786;7.058;2023-09-30T05:46:41;102107.41;;;11.35;100.00
67109;BME280;54027;50.786;7.058;2023-09-30T05:49:09;102109.13;;;11.34;100.00
67109;BME280;54027;50.786;7.058;2023-09-30T05:51:39;102118.63;;;11.34;100.00
67109;BME280;54027;50.786;7.058;2023-09-30T05:54:04;102128.94;;;11.29;100.00
67109;BME280;54027;50.786;7.058;2023-09-30T05:56:30;102128.09;;;11.30;100.00
67109;BME280;54027;50.786;7.058;2023-09-30T05:58:56;102114.28;;;11.31;100.00
67109;BME280;54027;50.786;7.058;2023-09-30T06:01:21;102100.50;;;11.32;100.00
67109;BME280;54027;50.786;7.058;2023-09-30T06:03:47;102105.69;;;11.35;100.00
67109;BME280;54027;50.786;7.058;2023-09-30T06:06:13;102109.19;;;11.39;100.00
67109;BME280;54027;50.786;7.058;2023-09-30T06:08:41;102114.50;;;11.48;100.00
67109;BME280;54027;50.786;7.058;2023-09-30T06:11:07;102117.13;;;11.51;100.00
67109;BME280;54027;50.786;7.058;2023-09-30T06:13:32;102118.84;;;11.55;100.00
67109;BME280;54027;50.786;7.058;2023-09-30T06:15:58;102119.75;;;11.59;100.00
67109;BME280;54027;50.786;7.058;2023-09-30T06:18:23;102124.13;;;11.63;100.00
67109;BME280;54027;50.786;7.058;2023-09-30T06:20:49;102122.47;;;11.71;100.00
67109;BME280;54027;50.786;7.058;2023-09-30T06:23:16;102124.28;;;11.81;100.00
67109;BME280;54027;50.786;7.058;2023-09-30T06:25:42;102133.81;;;11.88;100.00
67109;BME280;54027;50.786;7.058;2023-09-30T06:28:07;102133.88;;;11.93;100.00
67109;BME280;54027;50.786;7.058;2023-09-30T06:30:33;102125.25;;;11.95;100.00
67109;BME280;54027;50.786;7.058;2023-09-30T06:33:02;102125.25;;;11.97;100.00
67109;BME280;54027;50.786;7.058;2023-09-30T06:35:30;102122.72;;;12.01;100.00
67109;BME280;54027;50.786;7.058;2023-09-30T06:37:58;102120.19;;;12.10;100.00
67109;BME280;54027;50.786;7.058;2023-09-30T06:40:24;102123.66;;;12.12;100.00
67109;BME280;54027;50.786;7.058;2023-09-30T06:42:49;102122.81;;;12.18;100.00
67109;BME280;54027;50.786;7.058;2023-09-30T06:45:15;102116.81;;;12.25;100.00
67109;BME280;54027;50.786;7.058;2023-09-30T06:47:41;102127.22;;;12.31;100.00
67109;BME280;54027;50.786;7.058;2023-09-30T06:50:11;102135.06;;;12.41;100.00
67109;BME280;54027;50.786;7.058;2023-09-30T06:52:40;102145.50;;;12.54;100.00
67109;BME280;54027;50.786;7.058;2023-09-30T06:55:06;102148.19;;;12.66;100.00
67109;BME280;54027;50.786;7.058;2023-09-30T06:57:33;102144.78;;;12.76;100.00
67109;BME280;54027;50.786;7.058;2023-09-30T06:59:59;102139.59;;;12.80;100.00
67109;BME280;54027;50.786;7.058;2023-09-30T07:02:24;102144.81;;;12.89;100.00
67109;BME280;54027;50.786;7.058;2023-09-30T07:04:49;102143.09;;;12.94;100.00
67109;BME280;54027;50.786;7.058;2023-09-30T07:07:15;102150.06;;;12.98;100.00
67109;BME280;54027;50.786;7.058;2023-09-30T07:09:40;102154.44;;;13.06;100.00
67109;BME280;54027;50.786;7.058;2023-09-30T07:12:06;102151.00;;;13.13;100.00
67109;BME280;54027;50.786;7.058;2023-09-30T07:14:31;102158.81;;;13.20;100.00
67109;BME280;54027;50.786;7.058;2023-09-30T07:16:56;102151.91;;;13.25;100.00
67109;BME280;54027;50.786;7.058;2023-09-30T07:19:22;102140.69;;;13.32;100.00
67109;BME280;54027;50.786;7.058;2023-09-30T07:21:48;102145.03;;;13.41;100.00
67109;BME280;54027;50.786;7.058;2023-09-30T07:24:13;102154.56;;;13.46;100.00
67109;BME280;54027;50.786;7.058;2023-09-30T07:26:39;102149.38;;;13.52;100.00
67109;BME280;54027;50.786;7.058;2023-09-30T07:29:05;102153.69;;;13.55;100.00
67109;BME280;54027;50.786;7.058;2023-09-30T07:31:35;102166.69;;;13.58;100.00
67109;BME280;54027;50.786;7.058;2023-09-30T07:34:00;102161.50;;;13.64;100.00
67109;BME280;54027;50.786;7.058;2023-09-30T07:36:26;102171.06;;;13.65;100.00
67109;BME280;54027;50.786;7.058;2023-09-30T07:38:51;102176.22;;;13.64;100.00
67109;BME280;54027;50.786;7.058;2023-09-30T07:41:18;102176.25;;;13.73;100.00
67109;BME280;54027;50.786;7.058;2023-09-30T07:43:43;102172.78;;;13.78;100.00
67109;BME280;54027;50.786;7.058;2023-09-30T07:46:09;102184.91;;;13.90;100.00
67109;BME280;54027;50.786;7.058;2023-09-30T07:48:34;102186.66;;;13.95;100.00
67109;BME280;54027;50.786;7.058;2023-09-30T07:51:00;102196.19;;;13.96;100.00
67109;BME280;54027;50.786;7.058;2023-09-30T07:53:26;102207.44;;;14.07;100.00
67109;BME280;54027;50.786;7.058;2023-09-30T07:55:52;102197.06;;;14.12;100.00
67109;BME280;54027;50.786;7.058;2023-09-30T07:58:19;102199.66;;;14.15;100.00
67109;BME280;54027;50.786;7.058;2023-09-30T08:00:45;102182.34;;;14.19;100.00
67109;BME280;54027;50.786;7.058;2023-09-30T08:03:10;102179.69;;;14.25;100.00
67109;BME280;54027;50.786;7.058;2023-09-30T08:05:37;102188.38;;;14.28;100.00
67109;BME280;54027;50.786;7.058;2023-09-30T08:08:02;102178.84;;;14.36;100.00
67109;BME280;54027;50.786;7.058;2023-09-30T08:10:27;102175.41;;;14.42;100.00
67109;BME280;54027;50.786;7.058;2023-09-30T08:12:54;102171.03;;;14.50;100.00
67109;BME280;54027;50.786;7.058;2023-09-30T08:15:22;102177.97;;;14.60;100.00
67109;BME280;54027;50.786;7.058;2023-09-30T08:17:47;102179.69;;;14.61;100.00
67109;BME280;54027;50.786;7.058;2023-09-30T08:20:13;102197.91;;;14.58;100.00
67109;BME280;54027;50.786;7.058;2023-09-30T08:22:39;102216.13;;;14.65;100.00
67109;BME280;54027;50.786;7.058;2023-09-30T08:25:05;102211.78;;;14.64;100.00
67109;BME280;54027;50.786;7.058;2023-09-30T08:27:31;102205.69;;;14.72;100.00
67109;BME280;54027;50.786;7.058;2023-09-30T08:29:57;102199.59;;;14.80;100.00
67109;BME280;54027;50.786;7.058;2023-09-30T08:32:22;102208.25;;;14.87;100.00
67109;BME280;54027;50.786;7.058;2023-09-30T08:34:47;102215.16;;;14.94;100.00
67109;BME280;54027;50.786;7.058;2023-09-30T08:37:13;102219.47;;;15.02;100.00
67109;BME280;54027;50.786;7.058;2023-09-30T08:39:39;102222.94;;;15.06;100.00
67109;BME280;54027;50.786;7.058;2023-09-30T08:42:09;102214.25;;;15.08;100.00
67109;BME280;54027;50.786;7.058;2023-09-30T08:44:39;102224.63;;;15.22;100.00
67109;BME280;54027;50.786;7.058;2023-09-30T08:47:06;102210.72;;;15.25;100.00
67109;BME280;54027;50.786;7.058;2023-09-30T08:49:37;102217.59;;;15.32;100.00
67109;BME280;54027;50.786;7.058;2023-09-30T08:52:06;102213.25;;;15.38;100.00
67109;BME280;54027;50.786;7.058;2023-09-30T08:54:34;102223.63;;;15.46;100.00
67109;BME280;54027;50.786;7.058;2023-09-30T08:57:00;102216.66;;;15.51;100.00
67109;BME280;54027;50.786;7.058;2023-09-30T08:59:25;102210.53;;;15.56;100.00
67109;BME280;54027;50.786;7.058;2023-09-30T09:01:52;102213.16;;;15.58;99.35
67109;BME280;54027;50.786;7.058;2023-09-30T09:04:17;102215.75;;;15.56;98.90
67109;BME280;54027;50.786;7.058;2023-09-30T09:06:42;102223.53;;;15.68;98.76
67109;BME280;54027;50.786;7.058;2023-09-30T09:09:16;102211.34;;;15.75;98.52
67109;BME280;54027;50.786;7.058;2023-09-30T09:11:45;102204.31;;;15.85;98.22
67109;BME280;54027;50.786;7.058;2023-09-30T09:14:11;102199.91;;;15.88;96.69
67109;BME280;54027;50.786;7.058;2023-09-30T09:16:36;102194.66;;;15.96;96.76
67109;BME280;54027;50.786;7.058;2023-09-30T09:19:15;102183.31;;;16.01;97.40
67109;BME280;54027;50.786;7.058;2023-09-30T09:21:53;102185.00;;;16.08;97.41
67109;BME280;54027;50.786;7.058;2023-09-30T09:24:28;102179.69;;;16.20;96.25
67109;BME280;54027;50.786;7.058;2023-09-30T09:27:12;102184.94;;;16.13;94.05
67109;BME280;54027;50.786;7.058;2023-09-30T09:29:41;102172.69;;;16.21;94.42
67109;BME280;54027;50.786;7.058;2023-09-30T09:34:36;102169.97;;;16.33;94.72
67109;BME280;54027;50.786;7.058;2023-09-30T09:37:21;102170.78;;;16.41;95.06
67109;BME280;54027;50.786;7.058;2023-09-30T09:39:53;102172.38;;;16.56;95.79
67109;BME280;54027;50.786;7.058;2023-09-30T09:42:32;102172.22;;;16.69;94.98
67109;BME280;54027;50.786;7.058;2023-09-30T09:45:03;102162.50;;;16.85;93.19
67109;BME280;54027;50.786;7.058;2023-09-30T09:47:32;102138.84;;;16.96;90.84
67109;BME280;54027;50.786;7.058;2023-09-30T09:49:58;102149.13;;;17.09;90.89
67109;BME280;54027;50.786;7.058;2023-09-30T09:52:25;102155.06;;;17.20;90.13
67109;BME280;54027;50.786;7.058;2023-09-30T09:54:51;102158.44;;;17.30;90.41
67109;BME280;54027;50.786;7.058;2023-09-30T09:57:18;102163.50;;;17.42;88.97
67109;BME280;54027;50.786;7.058;2023-09-30T09:59:45;102148.59;;;17.46;85.83
67109;BME280;54027;50.786;7.058;2023-09-30T10:02:15;102158.88;;;17.59;86.11
67109;BME280;54027;50.786;7.058;2023-09-30T10:04:43;102157.78;;;17.72;86.92
67109;BME280;54027;50.786;7.058;2023-09-30T10:07:12;102156.84;;;17.78;86.38
67109;BME280;54027;50.786;7.058;2023-09-30T10:09:41;102144.66;;;17.75;84.13
67109;BME280;54027;50.786;7.058;2023-09-30T10:12:10;102146.28;;;17.82;83.77
67109;BME280;54027;50.786;7.058;2023-09-30T10:14:35;102145.41;;;17.85;83.31
67109;BME280;54027;50.786;7.058;2023-09-30T10:17:01;102155.88;;;17.85;83.98
67109;BME280;54027;50.786;7.058;2023-09-30T10:19:28;102138.63;;;17.70;80.91
67109;BME280;54027;50.786;7.058;2023-09-30T10:24:54;102139.75;;;18.09;81.38
67109;BME280;54027;50.786;7.058;2023-09-30T10:35:19;102174.38;;;18.25;81.48
67109;BME280;54027;50.786;7.058;2023-09-30T10:37:45;102154.00;;;18.42;80.09
67109;BME280;54027;50.786;7.058;2023-09-30T10:40:28;102170.13;;;18.19;81.88
67109;BME280;54027;50.786;7.058;2023-09-30T10:42:53;102150.19;;;18.12;80.49
67109;BME280;54027;50.786;7.058;2023-09-30T10:50:51;102151.59;;;18.31;79.45
67109;BME280;54027;50.786;7.058;2023-09-30T10:53:18;102141.84;;;18.39;79.01
67109;BME280;54027;50.786;7.058;2023-09-30T10:55:49;102095.72;;;18.32;74.70
67109;BME280;54027;50.786;7.058;2023-09-30T10:58:18;102107.84;;;18.36;74.37
67109;BME280;54027;50.786;7.058;2023-09-30T11:00:53;102096.16;;;18.52;73.73
67109;BME280;54027;50.786;7.058;2023-09-30T11:03:20;102072.03;;;18.80;71.05
67109;BME280;54027;50.786;7.058;2023-09-30T11:05:49;102066.47;;;18.96;69.75
67109;BME280;54027;50.786;7.058;2023-09-30T11:08:17;102045.31;;;19.05;67.64
67109;BME280;54027;50.786;7.058;2023-09-30T11:10:51;102026.78;;;19.13;66.47
67109;BME280;54027;50.786;7.058;2023-09-30T11:13:18;102031.22;;;19.10;66.11
67109;BME280;54027;50.786;7.058;2023-09-30T11:15:44;102017.81;;;19.22;65.67
67109;BME280;54027;50.786;7.058;2023-09-30T11:18:14;102017.75;;;19.25;65.21
67109;BME280;54027;50.786;7.058;2023-09-30T11:20:40;101995.38;;;19.45;64.44
67109;BME280;54027;50.786;7.058;2023-09-30T11:23:06;102012.56;;;19.57;65.00
67109;BME280;54027;50.786;7.058;2023-09-30T11:25:36;101971.44;;;19.59;63.09
67109;BME280;54027;50.786;7.058;2023-09-30T11:28:16;101991.41;;;19.65;64.37
67109;BME280;54027;50.786;7.058;2023-09-30T11:30:57;101986.88;;;19.70;63.93
67109;BME280;54027;50.786;7.058;2023-09-30T11:33:24;101973.78;;;19.68;63.47
67109;BME280;54027;50.786;7.058;2023-09-30T11:38:29;101915.75;;;19.82;60.35
67109;BME280;54027;50.786;7.058;2023-09-30T11:40:59;101868.59;;;19.79;57.91
67109;BME280;54027;50.786;7.058;2023-09-30T11:43:25;101875.31;;;19.56;57.66
67109;BME280;54027;50.786;7.058;2023-09-30T11:45:50;101925.59;;;19.72;59.71
67109;BME280;54027;50.786;7.058;2023-09-30T11:48:19;101903.56;;;19.79;58.53
67109;BME280;54027;50.786;7.058;2023-09-30T11:50:48;101877.81;;;19.92;57.14
67109;BME280;54027;50.786;7.058;2023-09-30T11:53:16;101918.06;;;20.22;58.39
67109;BME280;54027;50.786;7.058;2023-09-30T11:55:41;101899.31;;;20.34;57.68
67109;BME280;54027;50.786;7.058;2023-09-30T11:58:07;101869.13;;;20.47;56.39
67109;BME280;54027;50.786;7.058;2023-09-30T12:00:35;101891.44;;;20.61;56.80
67109;BME280;54027;50.786;7.058;2023-09-30T12:03:00;101942.03;;;20.68;59.67
67109;BME280;54027;50.786;7.058;2023-09-30T12:05:25;101988.13;;;20.50;61.48
67109;BME280;54027;50.786;7.058;2023-09-30T12:07:51;102032.50;;;20.29;63.61
67109;BME280;54027;50.786;7.058;2023-09-30T12:10:16;101970.88;;;20.11;60.76
67109;BME280;54027;50.786;7.058;2023-09-30T12:12:41;102003.28;;;20.10;62.27
67109;BME280;54027;50.786;7.058;2023-09-30T12:15:07;102012.34;;;19.98;63.01
67109;BME280;54027;50.786;7.058;2023-09-30T12:17:34;102016.06;;;19.91;64.30
67109;BME280;54027;50.786;7.058;2023-09-30T12:19:59;102041.38;;;19.92;66.06
67109;BME280;54027;50.786;7.058;2023-09-30T12:22:25;102044.94;;;19.91;65.69
67109;BME280;54027;50.786;7.058;2023-09-30T12:24:50;102007.66;;;19.79;64.44
67109;BME280;54027;50.786;7.058;2023-09-30T12:27:17;101995.56;;;19.72;64.31
67109;BME280;54027;50.786;7.058;2023-09-30T12:29:42;102001.84;;;19.66;64.91
67109;BME280;54027;50.786;7.058;2023-09-30T12:32:09;102005.63;;;19.54;65.14
67109;BME280;54027;50.786;7.058;2023-09-30T12:34:34;102005.00;;;19.45;65.52
67109;BME280;54027;50.786;7.058;2023-09-30T12:37:01;101985.91;;;19.40;65.60
67109;BME280;54027;50.786;7.058;2023-09-30T12:39:26;101965.56;;;19.49;65.00
67109;BME280;54027;50.786;7.058;2023-09-30T12:41:55;101972.66;;;19.44;64.80
67109;BME280;54027;50.786;7.058;2023-09-30T12:44:20;102002.69;;;19.33;65.98
67109;BME280;54027;50.786;7.058;2023-09-30T12:46:47;101957.22;;;19.34;63.38
67109;BME280;54027;50.786;7.058;2023-09-30T12:49:13;101930.03;;;19.38;62.66
67109;BME280;54027;50.786;7.058;2023-09-30T12:51:39;101936.72;;;19.49;63.44
67109;BME280;54027;50.786;7.058;2023-09-30T12:54:04;101940.03;;;19.56;63.01
67109;BME280;54027;50.786;7.058;2023-09-30T12:56:29;101933.47;;;19.72;62.21
67109;BME280;54027;50.786;7.058;2023-09-30T12:58:55;101911.31;;;19.84;61.06
67109;BME280;54027;50.786;7.058;2023-09-30T13:01:21;101912.94;;;19.88;61.23